Accueil
METAR-TAF:

METAR-TAF

Aéroports :

Aéroport de Bournemouth

Bornemouth, Angleterre

latitude: 50-47N, longitude: 001-50W, altitude: 11 m

Observation

Le bulletin a été fait il y a 32 minutes, à 10:50 UTC
Vent 8 kt de ouest/nord-ouest, variant entre ouest/sud-ouest et nord-ouest
Température 12°C
Humidité 67%
Pression 1019 hPa
Visibilité 10 km ou plus
Quelques nuages à une hauteur de 3100 ft
Nuages fragmentés à une hauteur de 4000 ft

METAR: EGHH 031050Z 29008KT 250V320 9999 FEW031 BKN040 12/06 Q1019

Heure: 12:22 (11:22 UTC)

Prévision

Le bulletin a été fait il y a 3 heures et 25 minutes, à 07:57 UTC
Prévision valable du 03 à 09 UTC au 03 à 18 UTC
Vent 9 kt de ouest/nord-ouest
Visibilité 10 km ou plus
Nuages épars à une hauteur de 4000 ft

TAF: EGHH 030757Z 0309/0318 30009KT 9999 SCT040

Observations et prévisions météorologiques de plus de 4000 aéroports (messages METAR et TAF).

Les stations disponibles sont représentées par des disques jaunes et rouges sur la carte.

Passer la souris dessus pour voir le nom de la station.

Cliquer dessus pour voir les observations et prévisions météorologiques.

Pour changer de carte: cliquez sur les boutons verts avec une croix noire pour zoomer, sur le bouton vert avec un tiret pour effectuer un zoom arrière, ou sur les flèches vertes pour les cartes adjacentes.


METAR-TAF: